Time;durP1;ratioP1;P1;durP2;ratioP2;P2;SDS_P1;SDS_P2;PMS_P1;PMS_P2;Temp;Humidity;BMP_temperature;BMP_pressure;BME280_temperature;BME280_humidity;BME280_pressure;Samples;Min_cycle;Max_cycle;Signal;HPM_P1;HPM_P2
2023/03/08 00:01:01;;;;;;;14.23;6.90;;;13.00;77.60;;;;;;6245766;23;20020;-86
2023/03/08 00:03:27;;;;;;;13.10;6.57;;;13.00;77.70;;;;;;6219298;23;20004;-85
2023/03/08 00:05:53;;;;;;;11.40;6.97;;;12.90;77.90;;;;;;6246221;23;20007;-85
2023/03/08 00:08:19;;;;;;;10.65;6.85;;;12.90;77.90;;;;;;6246244;23;20004;-86
2023/03/08 00:10:45;;;;;;;10.77;6.93;;;12.80;78.10;;;;;;6218933;23;20047;-84
2023/03/08 00:13:11;;;;;;;8.95;6.32;;;12.90;78.30;;;;;;6245227;23;20083;-85
2023/03/08 00:15:38;;;;;;;11.85;6.93;;;12.80;78.20;;;;;;6245998;23;20006;-85
2023/03/08 00:18:06;;;;;;;10.82;7.60;;;12.80;78.60;;;;;;6245192;23;20418;-85
2023/03/08 00:20:32;;;;;;;13.75;9.15;;;12.70;78.30;;;;;;6245221;23;20000;-85
2023/03/08 00:22:58;;;;;;;15.23;9.38;;;12.50;78.30;;;;;;6245357;23;20042;-84
2023/03/08 00:25:24;;;;;;;14.15;8.77;;;12.50;78.50;;;;;;6245535;23;20426;-84
2023/03/08 00:27:49;;;;;;;20.33;11.38;;;12.50;78.60;;;;;;6218646;23;20114;-84
2023/03/08 00:30:15;;;;;;;17.08;11.48;;;12.50;79.10;;;;;;6219482;23;20011;-84
2023/03/08 00:32:41;;;;;;;19.00;11.88;;;12.50;79.50;;;;;;6218356;23;20649;-84
2023/03/08 00:35:08;;;;;;;17.35;12.43;;;12.50;79.80;;;;;;6246329;23;20054;-84
2023/03/08 00:37:34;;;;;;;23.77;14.10;;;12.50;80.10;;;;;;6245838;23;20000;-84
2023/03/08 00:39:59;;;;;;;19.20;13.90;;;12.50;80.20;;;;;;6245680;23;20055;-84
2023/03/08 00:42:26;;;;;;;20.23;13.25;;;12.50;80.30;;;;;;6245923;23;20141;-87
2023/03/08 00:44:52;;;;;;;24.70;14.90;;;12.50;80.50;;;;;;6245832;23;20000;-86
2023/03/08 00:47:17;;;;;;;21.08;14.23;;;12.50;80.80;;;;;;6246415;23;20134;-85
2023/03/08 00:49:43;;;;;;;20.48;14.18;;;12.40;80.90;;;;;;6246399;23;20000;-87
2023/03/08 00:52:09;;;;;;;20.55;14.65;;;12.40;81.10;;;;;;6245996;23;20004;-87
2023/03/08 00:54:35;;;;;;;23.10;14.45;;;12.30;81.40;;;;;;6219002;23;20028;-84
2023/03/08 00:57:01;;;;;;;24.45;13.98;;;12.30;81.70;;;;;;6218998;23;20010;-84
2023/03/08 00:59:27;;;;;;;19.95;14.20;;;12.30;82.50;;;;;;6245791;23;20031;-85
2023/03/08 01:01:53;;;;;;;20.33;13.38;;;12.30;82.00;;;;;;6246070;23;20431;-88
2023/03/08 01:04:18;;;;;;;24.30;15.35;;;12.30;82.20;;;;;;6246641;23;20007;-88
2023/03/08 01:06:44;;;;;;;21.45;14.35;;;12.30;82.20;;;;;;6246818;23;20004;-86
2023/03/08 01:09:11;;;;;;;24.20;16.23;;;12.30;82.40;;;;;;6221632;23;20043;-87
2023/03/08 01:11:37;;;;;;;23.42;15.38;;;12.30;82.40;;;;;;6248218;23;20027;-87
2023/03/08 01:14:05;;;;;;;21.55;15.07;;;12.30;82.30;;;;;;6248576;23;20446;-87
2023/03/08 01:16:32;;;;;;;27.48;15.27;;;12.30;82.40;;;;;;6248365;23;20031;-86
2023/03/08 01:19:00;;;;;;;23.23;15.85;;;12.30;82.50;;;;;;6220975;23;20026;-87
2023/03/08 01:21:27;;;;;;;23.42;16.08;;;12.30;82.50;;;;;;6247756;23;20000;-87
2023/03/08 01:23:53;;;;;;;23.92;16.35;;;12.30;82.60;;;;;;6248097;23;20000;-86
2023/03/08 01:26:22;;;;;;;23.17;16.98;;;12.30;82.80;;;;;;6248108;23;20004;-86
2023/03/08 01:28:48;;;;;;;24.73;16.75;;;12.30;82.90;;;;;;6248000;23;19996;-85
2023/03/08 01:31:21;;;;;;;29.70;18.08;;;12.30;83.00;;;;;;6247689;23;20078;-85
2023/03/08 01:33:47;;;;;;;26.52;17.58;;;12.30;83.00;;;;;;6247993;23;19997;-86
2023/03/08 01:36:16;;;;;;;28.40;18.42;;;12.30;83.10;;;;;;6247984;23;20007;-86
2023/03/08 01:38:42;;;;;;;27.60;18.65;;;12.30;83.20;;;;;;6248205;23;20000;-84
2023/03/08 01:41:13;;;;;;;26.02;18.42;;;12.30;83.30;;;;;;6247627;23;20000;-85
2023/03/08 01:43:39;;;;;;;27.25;18.10;;;12.20;83.40;;;;;;6221130;23;20004;-85
2023/03/08 01:46:19;;;;;;;30.20;19.60;;;12.20;83.60;;;;;;6247670;23;20011;-85
2023/03/08 01:49:02;;;;;;;27.25;17.98;;;12.10;83.80;;;;;;6221405;23;20433;-84
2023/03/08 01:51:40;;;;;;;25.05;17.75;;;12.10;84.00;;;;;;6247601;23;20070;-86
2023/03/08 01:54:11;;;;;;;29.27;18.63;;;12.10;84.00;;;;;;6220810;23;20083;-86
2023/03/08 01:56:39;;;;;;;27.20;18.50;;;12.10;84.10;;;;;;6247437;23;20029;-86
2023/03/08 01:59:05;;;;;;;25.25;17.63;;;12.10;84.10;;;;;;6248098;23;20023;-86
2023/03/08 02:01:33;;;;;;;27.48;18.17;;;12.10;84.30;;;;;;6247430;23;20019;-86
2023/03/08 02:03:59;;;;;;;28.70;17.75;;;12.00;84.20;;;;;;6220646;23;20000;-85
2023/03/08 02:06:25;;;;;;;26.02;17.60;;;12.00;84.30;;;;;;6220944;23;20426;-85
2023/03/08 02:08:51;;;;;;;26.10;17.73;;;12.00;84.30;;;;;;6248206;23;20000;-84
2023/03/08 02:11:18;;;;;;;25.13;18.38;;;12.00;84.40;;;;;;6247873;23;19996;-83
2023/03/08 02:13:44;;;;;;;26.63;17.67;;;12.00;84.50;;;;;;6247950;23;20038;-83
2023/03/08 02:16:13;;;;;;;26.42;18.90;;;12.00;84.60;;;;;;6247836;23;20019;-83
2023/03/08 02:18:58;;;;;;;26.95;18.17;;;11.90;84.40;;;;;;6246128;23;20423;-83
2023/03/08 02:21:26;;;;;;;26.75;17.90;;;11.90;84.50;;;;;;6246523;23;20084;-85
2023/03/08 02:23:52;;;;;;;26.23;18.55;;;11.90;84.60;;;;;;6247533;23;20000;-85
2023/03/08 02:26:18;;;;;;;24.65;16.92;;;11.90;84.70;;;;;;6247468;23;20043;-84
2023/03/08 02:28:44;;;;;;;28.23;17.95;;;11.80;84.90;;;;;;6248149;23;20054;-85
2023/03/08 02:31:11;;;;;;;25.13;17.65;;;11.80;85.20;;;;;;6246663;23;20005;-86
2023/03/08 02:33:36;;;;;;;24.55;17.10;;;11.80;85.40;;;;;;6247136;23;20014;-85
2023/03/08 02:36:03;;;;;;;23.27;16.90;;;11.80;85.60;;;;;;6247782;23;20023;-86
2023/03/08 02:38:29;;;;;;;27.90;17.85;;;11.80;85.70;;;;;;6247653;23;20027;-85
2023/03/08 02:40:55;;;;;;;26.77;18.13;;;11.80;85.70;;;;;;6248072;23;19996;-86
2023/03/08 02:43:21;;;;;;;27.80;18.77;;;11.70;85.90;;;;;;6249158;23;20042;-85
2023/03/08 02:45:47;;;;;;;26.60;17.80;;;11.70;86.30;;;;;;6249303;23;20057;-84
2023/03/08 02:48:14;;;;;;;27.17;17.83;;;11.70;86.40;;;;;;6247024;23;20027;-84
2023/03/08 02:50:40;;;;;;;27.48;18.77;;;11.70;86.50;;;;;;6249329;23;20007;-84
2023/03/08 02:53:05;;;;;;;27.58;18.15;;;11.70;86.60;;;;;;6249418;23;20027;-84
2023/03/08 02:55:34;;;;;;;23.75;17.20;;;11.70;86.60;;;;;;6221276;23;20391;-85
2023/03/08 02:58:04;;;;;;;25.42;18.08;;;11.70;86.60;;;;;;6247880;23;20062;-85
2023/03/08 03:00:30;;;;;;;24.77;17.60;;;11.70;86.60;;;;;;6247933;23;20000;-84
2023/03/08 03:02:56;;;;;;;26.85;17.88;;;11.60;86.80;;;;;;6246565;23;20012;-84
2023/03/08 03:05:21;;;;;;;27.90;18.67;;;11.60;87.00;;;;;;6221107;23;20331;-84
2023/03/08 03:07:47;;;;;;;27.38;18.02;;;11.60;87.00;;;;;;6247716;23;20000;-85
2023/03/08 03:10:13;;;;;;;26.23;18.25;;;11.60;87.00;;;;;;6247967;23;20070;-85
2023/03/08 03:12:39;;;;;;;26.25;17.95;;;11.60;87.00;;;;;;6247412;23;20000;-85
2023/03/08 03:15:06;;;;;;;24.92;16.88;;;11.60;87.10;;;;;;6220787;23;20417;-84
2023/03/08 03:17:32;;;;;;;26.17;18.10;;;11.60;87.20;;;;;;6247672;23;20079;-86
2023/03/08 03:19:58;;;;;;;26.33;17.50;;;11.60;87.30;;;;;;6247544;23;20047;-86
2023/03/08 03:22:24;;;;;;;27.45;18.45;;;11.60;87.30;;;;;;6246917;23;20000;-84
2023/03/08 03:24:50;;;;;;;24.30;18.52;;;11.60;87.30;;;;;;6220098;23;20004;-85
2023/03/08 03:27:19;;;;;;;27.73;18.95;;;11.60;87.30;;;;;;6247505;23;20015;-86
2023/03/08 03:29:45;;;;;;;22.85;16.35;;;11.60;87.40;;;;;;6247619;23;20452;-86
2023/03/08 03:32:11;;;;;;;26.45;18.23;;;11.50;87.50;;;;;;6247422;23;20039;-87
2023/03/08 03:34:36;;;;;;;30.73;18.60;;;11.50;87.70;;;;;;6220509;23;20031;-86
2023/03/08 03:37:02;;;;;;;25.42;17.98;;;11.50;87.80;;;;;;6247040;23;20007;-85
2023/03/08 03:39:33;;;;;;;24.92;16.90;;;11.50;87.90;;;;;;6247418;23;20007;-85
2023/03/08 03:41:59;;;;;;;26.35;18.23;;;11.50;88.00;;;;;;6219376;23;20007;-85
2023/03/08 03:44:27;;;;;;;25.75;18.02;;;11.50;87.90;;;;;;6220197;23;20080;-85
2023/03/08 03:46:53;;;;;;;25.05;17.77;;;11.40;88.00;;;;;;6247429;23;20026;-85
2023/03/08 03:49:19;;;;;;;25.75;17.98;;;11.40;88.20;;;;;;6247267;23;20074;-86
2023/03/08 03:51:44;;;;;;;24.63;16.88;;;11.30;88.30;;;;;;6246730;23;20000;-86
2023/03/08 03:54:10;;;;;;;24.40;17.42;;;11.40;88.30;;;;;;6248163;23;20011;-87
2023/03/08 03:56:36;;;;;;;27.10;17.15;;;11.40;88.40;;;;;;6246666;23;20028;-85
2023/03/08 03:59:01;;;;;;;23.77;16.52;;;11.30;88.40;;;;;;6219653;23;20427;-87
2023/03/08 04:01:30;;;;;;;25.80;18.15;;;11.30;88.50;;;;;;6219562;23;20012;-86
2023/03/08 04:03:56;;;;;;;28.40;17.77;;;11.40;88.40;;;;;;6220326;23;20000;-85
2023/03/08 04:06:30;;;;;;;28.58;17.98;;;11.30;88.80;;;;;;6220744;23;20327;-86
2023/03/08 04:08:58;;;;;;;28.95;18.58;;;11.30;88.80;;;;;;6246911;23;20028;-86
2023/03/08 04:11:28;;;;;;;29.65;20.10;;;11.30;89.00;;;;;;6220676;23;20006;-87
2023/03/08 04:13:54;;;;;;;28.17;19.48;;;11.30;89.20;;;;;;6221511;23;20000;-87
2023/03/08 04:16:23;;;;;;;30.77;20.70;;;11.10;90.00;;;;;;6246807;23;20007;-83
2023/03/08 04:18:53;;;;;;;32.10;19.80;;;11.00;90.30;;;;;;6245760;23;19997;-83
2023/03/08 04:21:19;;;;;;;41.03;25.02;;;11.00;90.00;;;;;;6245668;23;20296;-83
2023/03/08 04:23:44;;;;;;;33.80;22.85;;;10.40;90.60;;;;;;6246089;23;20003;-83
2023/03/08 04:26:12;;;;;;;29.70;21.15;;;9.90;91.80;;;;;;6245788;23;20003;-83
2023/03/08 04:28:38;;;;;;;26.15;17.45;;;10.00;91.30;;;;;;6245696;23;20004;-83
2023/03/08 04:31:31;;;;;;;24.88;17.88;;;10.20;91.00;;;;;;6245606;23;20055;-82
2023/03/08 04:33:57;;;;;;;28.17;18.40;;;10.30;90.70;;;;;;6239153;23;20028;-84
2023/03/08 04:36:23;;;;;;;28.50;17.23;;;10.40;90.50;;;;;;6245434;23;20007;-84
2023/03/08 04:38:49;;;;;;;31.65;21.60;;;10.40;90.30;;;;;;6245659;23;20004;-84
2023/03/08 04:41:15;;;;;;;34.97;20.15;;;10.30;90.40;;;;;;6245380;23;20039;-87
2023/03/08 04:43:55;;;;;;;28.20;19.23;;;10.00;91.10;;;;;;6247923;23;19997;-88
2023/03/08 04:46:25;;;;;;;25.15;17.10;;;10.10;90.70;;;;;;6220368;23;20008;-87
2023/03/08 04:48:54;;;;;;;36.55;21.95;;;10.20;90.60;;;;;;6245954;23;20004;-86
2023/03/08 04:51:23;;;;;;;37.57;25.47;;;10.10;90.70;;;;;;6245827;23;19996;-86
2023/03/08 04:53:49;;;;;;;26.38;18.85;;;9.60;91.70;;;;;;6245684;23;20219;-86
2023/03/08 04:56:16;;;;;;;27.40;18.10;;;9.70;91.70;;;;;;6218742;23;20058;-86
2023/03/08 04:58:42;;;;;;;28.60;17.77;;;9.80;91.40;;;;;;6244564;23;20004;-86
2023/03/08 05:01:16;;;;;;;26.00;18.08;;;9.90;91.20;;;;;;6244291;23;20012;-85
2023/03/08 05:03:42;;;;;;;27.58;17.65;;;10.10;90.80;;;;;;6217108;23;20009;-86
2023/03/08 05:06:08;;;;;;;26.30;17.25;;;10.20;90.60;;;;;;6245249;23;20001;-86
2023/03/08 05:08:35;;;;;;;22.13;16.35;;;10.20;90.30;;;;;;6244476;23;20055;-86
2023/03/08 05:11:01;;;;;;;25.25;17.15;;;10.30;90.20;;;;;;6244384;23;20012;-86
2023/03/08 05:13:29;;;;;;;28.25;17.85;;;10.10;90.10;;;;;;6245743;23;20000;-86
2023/03/08 05:15:56;;;;;;;23.85;16.10;;;10.10;90.20;;;;;;6245623;23;20000;-84
2023/03/08 05:18:21;;;;;;;28.08;18.48;;;10.10;90.00;;;;;;6244987;23;20008;-85
2023/03/08 05:20:54;;;;;;;24.95;16.85;;;10.20;90.00;;;;;;6245361;23;20071;-84
2023/03/08 05:23:20;;;;;;;23.98;16.17;;;10.30;89.80;;;;;;6244739;23;20000;-85
2023/03/08 05:25:46;;;;;;;26.40;17.02;;;10.30;89.60;;;;;;6246048;23;19996;-85
2023/03/08 05:28:14;;;;;;;31.60;20.60;;;10.30;89.30;;;;;;6245435;23;20012;-85
2023/03/08 05:30:40;;;;;;;32.20;19.45;;;10.00;89.50;;;;;;6246356;23;20069;-86
2023/03/08 05:33:06;;;;;;;21.92;15.18;;;10.00;90.00;;;;;;6244770;23;20008;-83
2023/03/08 05:35:32;;;;;;;23.17;16.88;;;10.00;89.70;;;;;;6244548;23;20038;-84
2023/03/08 05:37:57;;;;;;;24.40;16.85;;;10.00;89.70;;;;;;6244862;23;20007;-82
2023/03/08 05:40:23;;;;;;;24.70;16.95;;;10.00;89.60;;;;;;6218001;23;20054;-84
2023/03/08 05:42:49;;;;;;;25.67;16.92;;;10.10;89.60;;;;;;6245178;23;20453;-85
2023/03/08 05:45:14;;;;;;;27.40;17.75;;;10.10;89.50;;;;;;6244485;23;20047;-86
2023/03/08 05:47:40;;;;;;;27.00;18.23;;;10.10;89.40;;;;;;6246138;23;20005;-86
2023/03/08 05:50:06;;;;;;;23.48;16.92;;;10.20;89.30;;;;;;6246375;23;20000;-86
2023/03/08 05:52:32;;;;;;;25.92;16.80;;;10.20;89.10;;;;;;6245783;23;20004;-87
2023/03/08 05:54:58;;;;;;;27.70;17.33;;;10.20;89.00;;;;;;6248603;23;20011;-85
2023/03/08 05:57:23;;;;;;;23.35;17.05;;;10.20;88.50;;;;;;6248031;23;20004;-86
2023/03/08 05:59:49;;;;;;;28.90;19.10;;;10.30;88.90;;;;;;6220807;23;20000;-86
2023/03/08 06:02:15;;;;;;;26.75;17.17;;;10.40;88.80;;;;;;6246795;23;20015;-86
2023/03/08 06:04:40;;;;;;;26.75;18.13;;;10.40;88.70;;;;;;6220683;23;20008;-86
2023/03/08 06:07:06;;;;;;;25.88;16.05;;;10.40;88.70;;;;;;6220333;23;20431;-86
2023/03/08 06:09:32;;;;;;;24.20;15.88;;;10.40;88.60;;;;;;6247097;23;20004;-88
2023/03/08 06:11:57;;;;;;;28.40;17.65;;;10.40;88.70;;;;;;6248641;23;20008;-88
2023/03/08 06:14:23;;;;;;;24.65;15.77;;;10.50;88.80;;;;;;6249528;23;20011;-88
2023/03/08 06:16:49;;;;;;;28.20;18.20;;;10.50;88.70;;;;;;6248869;23;20449;-88
2023/03/08 06:19:15;;;;;;;28.65;16.73;;;10.50;88.50;;;;;;6248233;23;20047;-89
2023/03/08 06:21:40;;;;;;;23.02;14.52;;;10.50;88.40;;;;;;6248579;23;20004;-88
2023/03/08 06:24:06;;;;;;;21.13;15.13;;;10.50;89.50;;;;;;6248057;23;20004;-87
2023/03/08 06:26:32;;;;;;;25.02;16.45;;;10.60;89.00;;;;;;6246132;23;20023;-86
2023/03/08 06:28:57;;;;;;;24.00;17.20;;;10.60;88.70;;;;;;6246602;23;20360;-89
2023/03/08 06:31:23;;;;;;;27.13;15.93;;;10.70;88.50;;;;;;6247546;23;20000;-89
2023/03/08 06:33:49;;;;;;;31.33;16.70;;;10.70;88.40;;;;;;6247777;23;19997;-84
2023/03/08 06:36:17;;;;;;;22.55;15.35;;;10.70;88.20;;;;;;6246540;23;20003;-86
2023/03/08 06:38:43;;;;;;;25.60;16.27;;;10.80;88.20;;;;;;6247391;23;20335;-86
2023/03/08 06:41:10;;;;;;;26.27;16.17;;;10.90;88.10;;;;;;6247010;23;19996;-86
2023/03/08 06:43:37;;;;;;;21.60;14.85;;;10.90;87.80;;;;;;6246749;23;20330;-86
2023/03/08 06:46:07;;;;;;;20.70;14.70;;;10.90;87.70;;;;;;6246288;23;20000;-89
2023/03/08 06:48:34;;;;;;;24.52;15.32;;;10.90;87.70;;;;;;6246337;23;20000;-85
2023/03/08 06:51:00;;;;;;;23.05;14.50;;;11.00;87.50;;;;;;6244244;23;20070;-78
2023/03/08 06:53:26;;;;;;;28.05;15.73;;;11.00;87.40;;;;;;6245455;23;20028;-78
2023/03/08 06:55:52;;;;;;;28.55;17.55;;;11.00;87.20;;;;;;6246501;23;20027;-79
2023/03/08 06:58:18;;;;;;;25.38;15.95;;;11.00;87.10;;;;;;6246452;23;20488;-78
2023/03/08 07:00:44;;;;;;;28.05;17.30;;;10.90;87.00;;;;;;6245537;23;20079;-78
2023/03/08 07:03:13;;;;;;;26.52;16.85;;;11.00;87.20;;;;;;6246350;23;20047;-81
2023/03/08 07:05:39;;;;;;;24.63;15.38;;;10.90;87.40;;;;;;6245203;23;20027;-82
2023/03/08 07:08:06;;;;;;;22.63;15.55;;;10.80;87.60;;;;;;6246412;23;20004;-81
2023/03/08 07:10:32;;;;;;;24.73;16.00;;;10.80;87.50;;;;;;6246813;23;20008;-82
2023/03/08 07:12:58;;;;;;;27.30;16.17;;;10.80;87.60;;;;;;6246189;23;20004;-82
2023/03/08 07:15:24;;;;;;;23.85;15.23;;;10.80;87.70;;;;;;6246513;23;20010;-82
2023/03/08 07:17:54;;;;;;;25.20;15.70;;;10.90;87.80;;;;;;6246314;23;20058;-81
2023/03/08 07:20:24;;;;;;;22.85;14.93;;;11.00;87.90;;;;;;6245681;23;20047;-81
2023/03/08 07:22:50;;;;;;;;;;;11.00;87.90;;;;;;6219242;23;20011;-81
2023/03/08 07:25:18;;;;;;;24.27;16.02;;;11.10;87.70;;;;;;6246451;23;20257;-81
2023/03/08 07:27:44;;;;;;;25.45;16.23;;;11.10;87.60;;;;;;6246440;23;20330;-81
2023/03/08 07:30:12;;;;;;;22.83;14.85;;;11.10;87.60;;;;;;6245413;23;20000;-81
2023/03/08 07:32:41;;;;;;;31.42;20.40;;;11.10;87.40;;;;;;6245397;23;20011;-81
2023/03/08 07:35:08;;;;;;;27.88;17.17;;;11.10;87.20;;;;;;6245525;23;20004;-81
2023/03/08 07:37:34;;;;;;;28.60;18.25;;;11.00;87.80;;;;;;6215756;23;20001;-87
2023/03/08 07:39:59;;;;;;;26.98;18.02;;;11.00;88.00;;;;;;6242468;23;20010;-86
2023/03/08 07:42:26;;;;;;;30.77;20.40;;;10.90;88.20;;;;;;6243630;23;20075;-86
2023/03/08 07:44:52;;;;;;;29.63;19.83;;;10.60;89.00;;;;;;6216344;23;20010;-87
2023/03/08 07:47:18;;;;;;;37.22;21.02;;;10.50;89.60;;;;;;6244007;23;20000;-86
2023/03/08 07:49:43;;;;;;;32.42;20.08;;;10.50;89.80;;;;;;6217645;23;20004;-87
2023/03/08 07:52:09;;;;;;;36.15;21.80;;;10.50;90.10;;;;;;6243755;23;20073;-82
2023/03/08 07:54:35;;;;;;;28.00;17.90;;;10.40;90.20;;;;;;6244056;23;20004;-82
2023/03/08 07:57:01;;;;;;;26.42;17.83;;;10.30;90.40;;;;;;6244173;23;20032;-82
2023/03/08 07:59:27;;;;;;;25.40;17.17;;;10.50;90.10;;;;;;6243460;23;20039;-82
2023/03/08 08:01:53;;;;;;;26.23;16.33;;;10.70;90.00;;;;;;6241804;23;20092;-82
2023/03/08 08:04:21;;;;;;;24.05;16.90;;;10.80;89.70;;;;;;6243928;23;20031;-81
2023/03/08 08:06:50;;;;;;;24.98;16.58;;;;;;;;;;6218625;23;20012;-84
2023/03/08 08:09:17;;;;;;;24.17;16.10;;;11.00;88.90;;;;;;6218965;23;20010;-84
2023/03/08 08:11:43;;;;;;;22.85;16.05;;;11.20;89.00;;;;;;6219192;23;20440;-84
2023/03/08 08:14:08;;;;;;;23.75;15.82;;;11.30;88.70;;;;;;6245606;23;20048;-84
2023/03/08 08:16:34;;;;;;;24.50;15.30;;;11.40;88.40;;;;;;6243416;23;20035;-84
2023/03/08 08:19:00;;;;;;;25.10;17.40;;;11.50;88.20;;;;;;6239525;23;20003;-84
2023/03/08 08:21:25;;;;;;;26.83;16.67;;;11.60;88.00;;;;;;6236071;23;20012;-80
2023/03/08 08:24:00;;;;;;;25.15;16.65;;;11.70;87.80;;;;;;6212645;23;20008;-76
2023/03/08 08:26:26;;;;;;;25.42;17.40;;;11.80;87.40;;;;;;6215491;23;20004;-83
2023/03/08 08:28:53;;;;;;;21.73;15.75;;;11.80;87.00;;;;;;6243240;23;20490;-84
2023/03/08 08:31:22;;;;;;;20.55;15.30;;;11.80;86.90;;;;;;6244922;23;20004;-79
2023/03/08 08:33:48;;;;;;;22.77;15.90;;;11.80;86.50;;;;;;6243284;23;20372;-85
2023/03/08 08:36:17;;;;;;;23.08;15.82;;;11.90;87.00;;;;;;6244652;23;20011;-87
2023/03/08 08:38:46;;;;;;;24.42;15.52;;;12.00;87.10;;;;;;6244673;23;20000;-85
2023/03/08 08:41:16;;;;;;;25.25;17.35;;;12.20;87.10;;;;;;6245154;23;20479;-86
2023/03/08 08:43:45;;;;;;;25.40;15.73;;;12.40;86.80;;;;;;6245587;23;20006;-86
2023/03/08 08:46:12;;;;;;;24.30;15.95;;;12.60;86.50;;;;;;6218260;23;20370;-86
2023/03/08 08:48:38;;;;;;;20.95;15.02;;;12.70;85.10;;;;;;6245135;23;20046;-86
2023/03/08 08:51:05;;;;;;;22.17;15.43;;;12.60;84.70;;;;;;6244408;23;20004;-86
2023/03/08 08:53:32;;;;;;;21.23;15.02;;;12.70;85.10;;;;;;6245282;23;20015;-87
2023/03/08 08:55:58;;;;;;;24.27;16.08;;;12.80;85.20;;;;;;6218880;23;20037;-86
2023/03/08 08:58:24;;;;;;;20.77;14.90;;;13.00;85.00;;;;;;6218191;23;20008;-87
2023/03/08 09:00:50;;;;;;;23.00;15.25;;;13.20;84.70;;;;;;6244595;23;20000;-86
2023/03/08 09:03:16;;;;;;;21.95;16.02;;;13.40;84.30;;;;;;6244849;23;20014;-87
2023/03/08 09:05:44;;;;;;;24.05;15.57;;;13.60;83.70;;;;;;6218307;23;20028;-86
2023/03/08 09:08:11;;;;;;;22.73;16.15;;;13.70;82.60;;;;;;6217239;23;20091;-87
2023/03/08 09:10:39;;;;;;;17.85;13.75;;;13.90;81.70;;;;;;6245006;23;20007;-86
2023/03/08 09:13:07;;;;;;;23.38;14.45;;;13.90;81.80;;;;;;6218228;23;20015;-86
2023/03/08 09:15:35;;;;;;;24.33;15.88;;;14.00;82.30;;;;;;6218082;23;20004;-87
2023/03/08 09:18:02;;;;;;;25.50;15.50;;;14.20;81.40;;;;;;6243346;23;20011;-79
2023/03/08 09:20:30;;;;;;;26.17;14.35;;;14.10;79.10;;;;;;6243205;23;20032;-79
2023/03/08 09:22:56;;;;;;;24.05;14.65;;;14.20;80.40;;;;;;6243170;23;20012;-80
2023/03/08 09:25:23;;;;;;;20.70;14.63;;;14.30;80.80;;;;;;6243911;23;20000;-86
2023/03/08 09:27:49;;;;;;;21.23;15.05;;;14.50;80.60;;;;;;6243806;23;20024;-85
2023/03/08 09:30:16;;;;;;;24.65;15.68;;;14.70;80.10;;;;;;6245334;23;20036;-83
2023/03/08 09:32:42;;;;;;;24.33;14.77;;;14.90;79.30;;;;;;6245281;23;20004;-87
2023/03/08 09:35:11;;;;;;;22.70;14.65;;;15.00;78.60;;;;;;6220550;23;20008;-86
2023/03/08 09:37:37;;;;;;;24.77;15.10;;;15.10;78.10;;;;;;6247186;23;20008;-87
2023/03/08 09:40:08;;;;;;;21.35;13.90;;;15.10;77.90;;;;;;6246799;23;20073;-87
2023/03/08 09:42:35;;;;;;;17.08;13.32;;;15.20;78.00;;;;;;6247628;23;20018;-87
2023/03/08 09:45:10;;;;;;;20.48;14.60;;;15.40;78.00;;;;;;6246165;23;20026;-78
2023/03/08 09:47:43;;;;;;;21.55;13.98;;;15.60;77.30;;;;;;6246839;23;20010;-86
2023/03/08 09:50:16;;;;;;;20.88;13.10;;;15.80;77.10;;;;;;6247130;23;20015;-86
2023/03/08 09:52:58;;;;;;;20.88;12.57;;;15.90;76.60;;;;;;6246781;23;20000;-86
2023/03/08 09:55:29;;;;;;;21.60;13.82;;;16.10;75.80;;;;;;6220319;23;20015;-87
2023/03/08 09:58:03;;;;;;;;;;;16.20;75.20;;;;;;6248127;23;20039;-85
2023/03/08 10:00:33;;;;;;;20.73;12.88;;;16.40;74.80;;;;;;6247092;23;19903;-87
2023/03/08 10:03:32;;;;;;;20.05;12.45;;;16.40;73.20;;;;;;6247814;23;20437;-86
2023/03/08 10:06:01;;;;;;;20.17;12.27;;;16.40;73.90;;;;;;6247994;23;20351;-86
2023/03/08 10:08:34;;;;;;;16.67;12.00;;;16.50;73.70;;;;;;6247573;23;20000;-86
2023/03/08 10:11:06;;;;;;;24.40;15.38;;;16.50;74.10;;;;;;6220858;23;20004;-85
2023/03/08 10:13:33;;;;;;;18.13;12.50;;;16.20;70.90;;;;;;6247392;23;20312;-87
2023/03/08 10:16:19;;;;;;;14.43;11.20;;;16.10;72.80;;;;;;6247589;23;20007;-86
2023/03/08 10:18:49;;;;;;;16.88;11.80;;;16.30;73.60;;;;;;6247440;23;20055;-86
2023/03/08 10:21:18;;;;;;;16.20;11.77;;;16.50;73.60;;;;;;6247962;23;20062;-86
2023/03/08 10:24:15;;;;;;;13.43;10.02;;;16.70;73.20;;;;;;6247343;23;20003;-87
2023/03/08 10:26:42;;;;;;;15.05;10.32;;;16.80;72.00;;;;;;6246201;23;20511;-85
2023/03/08 10:29:11;;;;;;;14.50;11.18;;;17.00;71.70;;;;;;6247152;23;20007;-85
2023/03/08 10:31:37;;;;;;;13.43;10.18;;;17.10;71.30;;;;;;6247003;23;20031;-84
2023/03/08 10:34:17;;;;;;;16.30;11.48;;;17.20;71.60;;;;;;6246304;23;20088;-83
2023/03/08 10:37:05;;;;;;;16.75;12.40;;;17.30;71.70;;;;;;6219464;23;20030;-85
2023/03/08 10:39:31;;;;;;;16.55;12.07;;;17.40;71.00;;;;;;6246402;23;20075;-85
2023/03/08 10:41:59;;;;;;;16.50;12.00;;;17.50;70.30;;;;;;6245836;23;20453;-84
2023/03/08 10:44:39;;;;;;;15.48;11.52;;;17.40;70.10;;;;;;6246646;23;20000;-79
2023/03/08 10:47:23;;;;;;;16.10;11.48;;;17.40;70.10;;;;;;6218434;23;20004;-78
2023/03/08 10:50:02;;;;;;;17.42;12.02;;;17.40;70.00;;;;;;6241048;23;20387;-78
2023/03/08 10:52:28;;;;;;;19.30;11.10;;;17.50;69.90;;;;;;6243907;23;20008;-79
2023/03/08 10:55:00;;;;;;;16.20;11.00;;;17.50;69.40;;;;;;6245886;23;20004;-80
2023/03/08 10:57:27;;;;;;;19.45;12.25;;;17.30;68.90;;;;;;6218845;23;20027;-80
2023/03/08 10:59:53;;;;;;;17.80;11.95;;;17.20;67.70;;;;;;6242601;23;20362;-79
2023/03/08 11:02:21;;;;;;;16.88;11.18;;;16.90;69.10;;;;;;6245725;23;20012;-79
2023/03/08 11:04:52;;;;;;;19.88;12.00;;;16.80;69.70;;;;;;6246131;23;20001;-79
2023/03/08 11:07:38;;;;;;;13.20;10.02;;;16.70;69.60;;;;;;6246261;23;20039;-80
2023/03/08 11:10:18;;;;;;;17.02;10.93;;;16.60;69.40;;;;;;6245781;23;20014;-80
2023/03/08 11:12:44;;;;;;;19.83;11.20;;;16.60;70.00;;;;;;6245199;23;20004;-80
2023/03/08 11:15:14;;;;;;;18.83;12.45;;;16.50;69.60;;;;;;6244485;23;20030;-79
2023/03/08 11:17:46;;;;;;;;;;;16.30;70.00;;;;;;6246567;23;20327;-80
2023/03/08 11:20:29;;;;;;;12.25;9.40;;;16.30;70.40;;;;;;6246025;23;19982;-80
2023/03/08 11:23:13;;;;;;;16.60;11.68;;;16.20;70.80;;;;;;6219220;23;20087;-80
2023/03/08 11:26:30;;;;;;;18.20;10.48;;;16.10;70.30;;;;;;6245344;23;20445;-79
2023/03/08 11:28:55;;;;;;;13.88;8.98;;;16.10;70.90;;;;;;6070151;23;20006;-79
2023/03/08 11:31:50;;;;;;;13.40;8.75;;;16.10;70.80;;;;;;6214502;23;20059;-80
2023/03/08 11:34:28;;;;;;;15.55;8.60;;;16.10;70.40;;;;;;6246410;23;20000;-80
2023/03/08 11:37:19;;;;;;;12.75;9.65;;;16.00;70.40;;;;;;6246078;23;20000;-79
2023/03/08 11:39:55;;;;;;;18.90;11.77;;;16.10;70.40;;;;;;6188016;23;20078;-84
2023/03/08 11:42:52;;;;;;;13.23;8.85;;;16.00;69.60;;;;;;6245526;23;20015;-84
2023/03/08 11:45:29;;;;;;;15.50;9.88;;;16.00;70.70;;;;;;6238184;23;20008;-84
2023/03/08 11:48:21;;;;;;;12.40;8.55;;;16.10;70.80;;;;;;6245929;23;20312;-84
2023/03/08 11:51:05;;;;;;;11.10;8.20;;;16.20;70.70;;;;;;6245719;23;20000;-84
2023/03/08 11:53:56;;;;;;;13.55;9.07;;;16.30;70.70;;;;;;6245278;23;20000;-84
2023/03/08 11:56:44;;;;;;;15.52;9.55;;;16.30;70.80;;;;;;6245913;23;20383;-85
2023/03/08 11:59:25;;;;;;;15.50;9.52;;;16.40;70.80;;;;;;6244598;23;20053;-84
2023/03/08 12:02:12;;;;;;;12.45;9.38;;;16.50;70.70;;;;;;6243956;23;20012;-83
2023/03/08 12:05:04;;;;;;;14.55;8.80;;;16.60;70.70;;;;;;6245226;23;20004;-85
2023/03/08 12:07:44;;;;;;;16.58;10.20;;;16.80;70.40;;;;;;6244726;23;20307;-84
2023/03/08 12:10:20;;;;;;;18.52;10.10;;;17.00;70.00;;;;;;6244591;23;20054;-85
2023/03/08 12:13:11;;;;;;;14.30;10.18;;;17.10;69.80;;;;;;6244788;23;20012;-85
2023/03/08 12:16:03;;;;;;;13.35;10.00;;;17.30;69.70;;;;;;6245216;23;20004;-85
2023/03/08 12:18:59;;;;;;;14.02;10.32;;;17.80;69.50;;;;;;6245098;23;20008;-85
2023/03/08 12:21:47;;;;;;;13.68;9.75;;;18.30;67.80;;;;;;6218248;23;20000;-85
2023/03/08 12:24:43;;;;;;;12.95;10.52;;;18.70;67.00;;;;;;6245253;23;20087;-85
2023/03/08 12:27:41;;;;;;;14.82;10.20;;;18.70;65.00;;;;;;6243999;23;20004;-84
2023/03/08 12:30:12;;;;;;;14.23;10.38;;;18.90;65.80;;;;;;6244052;23;20004;-86
2023/03/08 12:32:41;;;;;;;16.58;10.52;;;19.60;65.00;;;;;;6244535;23;20326;-85
2023/03/08 12:35:21;;;;;;;14.80;10.75;;;20.20;63.80;;;;;;6244948;23;20042;-85
2023/03/08 12:38:44;;;;;;;13.48;10.25;;;20.70;62.50;;;;;;6217618;23;20471;-85
2023/03/08 12:41:25;;;;;;;17.55;10.80;;;21.20;61.60;;;;;;6244659;23;20055;-85